Time;durP1;ratioP1;P1;durP2;ratioP2;P2;SDS_P1;SDS_P2;PMS_P1;PMS_P2;Temp;Humidity;BMP_temperature;BMP_pressure;BME280_temperature;BME280_humidity;BME280_pressure;Samples;Min_cycle;Max_cycle;Signal;HPM_P1;HPM_P2
2021/01/30 00:01:13;;;;;;;32.17;14.57;;;;;;;;;;8161863;28;20377;-74
2021/01/30 00:05:17;;;;;;;37.35;14.82;;;;;;;;;;8163493;28;20413;-74
2021/01/30 00:09:23;;;;;;;39.60;16.40;;;;;;;;;;8163322;28;20481;-75
2021/01/30 00:13:26;;;;;;;45.03;18.48;;;;;;;;;;8162785;28;20385;-76
2021/01/30 00:17:29;;;;;;;59.72;24.20;;;;;;;;;;8163178;28;20461;-74
2021/01/30 00:21:33;;;;;;;41.92;16.85;;;;;;;;;;8162631;28;20359;-74
2021/01/30 00:25:38;;;;;;;39.05;13.45;;;;;;;;;;8162183;28;20488;-74
2021/01/30 00:29:42;;;;;;;32.90;14.57;;;;;;;;;;8161129;28;20390;-74
2021/01/30 00:33:45;;;;;;;40.30;15.82;;;;;;;;;;8176807;28;20496;-74
2021/01/30 00:37:48;;;;;;;32.33;14.23;;;;;;;;;;8162364;28;20491;-74
2021/01/30 00:41:51;;;;;;;36.35;14.52;;;;;;;;;;8162225;28;20473;-74
2021/01/30 00:45:55;;;;;;;33.28;14.52;;;;;;;;;;8162116;28;20409;-74
2021/01/30 00:49:59;;;;;;;34.83;14.93;;;;;;;;;;8175323;28;20481;-74
2021/01/30 00:54:03;;;;;;;37.78;16.05;;;;;;;;;;8176054;28;20386;-74
2021/01/30 00:58:07;;;;;;;38.47;16.83;;;;;;;;;;8176604;28;20495;-75
2021/01/30 01:02:11;;;;;;;45.10;17.13;;;;;;;;;;8161439;28;20362;-74
2021/01/30 01:06:20;;;;;;;43.33;18.73;;;;;;;;;;8161166;28;20469;-74
2021/01/30 01:10:24;;;;;;;43.40;17.70;;;;;;;;;;8161400;28;20466;-81
2021/01/30 01:14:28;;;;;;;47.13;18.88;;;;;;;;;;8159989;28;20510;-74
2021/01/30 01:18:32;;;;;;;46.42;18.50;;;;;;;;;;8161122;28;20496;-74
2021/01/30 01:22:35;;;;;;;45.92;18.90;;;;;;;;;;8159872;28;20480;-75
2021/01/30 01:26:39;;;;;;;45.67;19.15;;;;;;;;;;8160630;28;20428;-75
2021/01/30 01:30:42;;;;;;;46.33;19.65;;;;;;;;;;8158764;28;20498;-76
2021/01/30 01:34:46;;;;;;;59.67;20.85;;;;;;;;;;8160293;28;20054;-74
2021/01/30 01:38:50;;;;;;;56.50;20.92;;;;;;;;;;8160802;28;20054;-74
2021/01/30 01:43:05;;;;;;;61.17;21.42;;;;;;;;;;8159235;28;20380;-74
2021/01/30 01:47:37;;;;;;;56.10;21.38;;;;;;;;;;8158549;28;20038;-75
2021/01/30 01:51:56;;;;;;;49.00;20.52;;;;;;;;;;8160386;28;20500;-74
2021/01/30 01:56:04;;;;;;;53.25;21.02;;;;;;;;;;8158991;28;20413;-75
2021/01/30 02:00:08;;;;;;;53.40;19.58;;;;;;;;;;8158655;28;20464;-74
2021/01/30 02:04:15;;;;;;;44.13;18.23;;;;;;;;;;8174249;28;20461;-74
2021/01/30 02:08:23;;;;;;;57.72;21.52;;;;;;;;;;8160042;28;20358;-74
2021/01/30 02:12:27;;;;;;;53.05;21.70;;;;;;;;;;8158464;28;20477;-74
2021/01/30 02:16:49;;;;;;;53.33;21.35;;;;;;;;;;8159037;28;20366;-74
2021/01/30 02:21:32;;;;;;;50.40;21.60;;;;;;;;;;8158281;28;20385;-75
2021/01/30 02:26:24;;;;;;;56.17;24.95;;;;;;;;;;8159500;28;20409;-74
2021/01/30 02:30:50;;;;;;;49.08;21.45;;;;;;;;;;8158024;28;20084;-76
2021/01/30 02:35:25;;;;;;;59.65;22.48;;;;;;;;;;8159779;28;20479;-74
2021/01/30 02:39:40;;;;;;;50.42;19.17;;;;;;;;;;8159726;28;20480;-75
2021/01/30 02:43:47;;;;;;;53.17;19.33;;;;;;;;;;8159731;28;20369;-74
2021/01/30 02:48:04;;;;;;;47.95;20.48;;;;;;;;;;8158389;28;20461;-74
2021/01/30 02:52:25;;;;;;;71.37;27.50;;;;;;;;;;8142992;28;20474;-74
2021/01/30 02:56:29;;;;;;;49.97;21.70;;;;;;;;;;8157865;28;20465;-74
2021/01/30 03:00:34;;;;;;;52.40;22.00;;;;;;;;;;8141784;28;20477;-74
2021/01/30 03:04:40;;;;;;;47.75;20.58;;;;;;;;;;8158016;28;20058;-74
2021/01/30 03:08:53;;;;;;;50.30;21.52;;;;;;;;;;8157757;28;20480;-74
2021/01/30 03:13:11;;;;;;;58.55;25.50;;;;;;;;;;8161075;28;20488;-74
2021/01/30 03:17:16;;;;;;;49.45;20.05;;;;;;;;;;8165285;28;20370;-74
2021/01/30 03:21:21;;;;;;;51.78;22.13;;;;;;;;;;8163478;28;20392;-74
2021/01/30 03:25:28;;;;;;;51.28;21.65;;;;;;;;;;8162871;28;20477;-74
2021/01/30 03:29:32;;;;;;;54.38;22.50;;;;;;;;;;8165070;28;20054;-74
2021/01/30 03:33:35;;;;;;;46.55;21.25;;;;;;;;;;8164088;28;20050;-76
2021/01/30 03:37:38;;;;;;;58.88;21.65;;;;;;;;;;8164106;28;20077;-75
2021/01/30 03:41:43;;;;;;;58.08;25.95;;;;;;;;;;8162858;28;20500;-74
2021/01/30 03:45:46;;;;;;;68.47;24.40;;;;;;;;;;8163901;28;20385;-74
2021/01/30 03:49:49;;;;;;;45.92;20.10;;;;;;;;;;8164438;28;20377;-74
2021/01/30 03:53:54;;;;;;;52.97;21.00;;;;;;;;;;8163042;28;20046;-74
2021/01/30 03:57:57;;;;;;;53.17;21.88;;;;;;;;;;8162880;28;20389;-74
2021/01/30 04:02:00;;;;;;;48.40;19.40;;;;;;;;;;8163618;28;20477;-74
2021/01/30 04:06:04;;;;;;;54.95;21.08;;;;;;;;;;8163216;28;20373;-74
2021/01/30 04:10:09;;;;;;;50.25;23.48;;;;;;;;;;8161188;28;20503;-74
2021/01/30 04:14:13;;;;;;;50.75;21.73;;;;;;;;;;8160965;28;20496;-74
2021/01/30 04:18:16;;;;;;;54.97;26.23;;;;;;;;;;8162538;28;20373;-74
2021/01/30 04:22:19;;;;;;;51.65;22.23;;;;;;;;;;8162875;28;20054;-74
2021/01/30 04:26:23;;;;;;;62.97;28.77;;;;;;;;;;8161245;28;20054;-75
2021/01/30 04:30:29;;;;;;;57.03;25.20;;;;;;;;;;8160877;28;20350;-74
2021/01/30 04:34:33;;;;;;;54.50;23.45;;;;;;;;;;8160532;28;20414;-74
2021/01/30 04:38:37;;;;;;;59.95;24.58;;;;;;;;;;8162097;28;20054;-75
2021/01/30 04:43:12;;;;;;;49.05;21.08;;;;;;;;;;8144691;28;20077;-74
2021/01/30 04:47:40;;;;;;;55.80;22.70;;;;;;;;;;8161931;28;20391;-75
2021/01/30 04:51:49;;;;;;;47.97;21.57;;;;;;;;;;8161663;28;20361;-74
2021/01/30 04:56:13;;;;;;;64.78;24.33;;;;;;;;;;8160752;28;20393;-74
2021/01/30 05:00:28;;;;;;;76.05;28.38;;;;;;;;;;8160398;28;20054;-74
2021/01/30 05:04:37;;;;;;;79.32;26.23;;;;;;;;;;8161890;28;20381;-74
2021/01/30 05:08:45;;;;;;;57.47;22.75;;;;;;;;;;8159886;28;20054;-74
2021/01/30 05:13:25;;;;;;;48.20;19.50;;;;;;;;;;8177237;28;20115;-75
2021/01/30 05:17:36;;;;;;;45.90;20.65;;;;;;;;;;8191337;28;20392;-74
2021/01/30 05:21:51;;;;;;;50.13;23.13;;;;;;;;;;8191119;28;20381;-74
2021/01/30 05:26:47;;;;;;;156.70;69.97;;;;;;;;;;8192429;28;20526;-74
2021/01/30 05:31:31;;;;;;;119.43;36.25;;;;;;;;;;8193083;28;20062;-74
2021/01/30 05:36:06;;;;;;;100.55;32.75;;;;;;;;;;8192511;28;20453;-74
2021/01/30 05:40:28;;;;;;;67.45;24.83;;;;;;;;;;8192719;28;20058;-74
2021/01/30 05:44:47;;;;;;;67.70;26.92;;;;;;;;;;8192525;28;20473;-75
2021/01/30 05:48:52;;;;;;;105.47;31.87;;;;;;;;;;8192459;28;20472;-75
2021/01/30 05:52:57;;;;;;;78.45;30.27;;;;;;;;;;8192413;28;20365;-74
2021/01/30 05:57:00;;;;;;;51.17;23.70;;;;;;;;;;8135954;28;20473;-74
2021/01/30 06:01:26;;;;;;;72.22;29.50;;;;;;;;;;8204153;28;20453;-74
2021/01/30 06:05:41;;;;;;;92.82;34.00;;;;;;;;;;8185845;28;20385;-75
2021/01/30 06:09:45;;;;;;;89.57;32.03;;;;;;;;;;8191071;28;20482;-74
2021/01/30 06:13:59;;;;;;;115.45;48.30;;;;;;;;;;8171546;28;20488;-74
2021/01/30 06:18:27;;;;;;;148.90;58.00;;;;;;;;;;8190316;28;20357;-74
2021/01/30 06:22:30;;;;;;;175.60;67.20;;;;;;;;;;8187288;28;20381;-74
2021/01/30 06:26:44;;;;;;;151.50;58.50;;;;;;;;;;8188608;28;20388;-74
2021/01/30 06:30:48;;;;;;;128.68;52.60;;;;;;;;;;8185308;28;20062;-75
2021/01/30 06:35:25;;;;;;;138.35;50.75;;;;;;;;;;8188967;28;20484;-74
2021/01/30 06:39:36;;;;;;;119.03;46.33;;;;;;;;;;8187156;28;20053;-73
2021/01/30 06:43:46;;;;;;;63.30;26.73;;;;;;;;;;8187355;28;20138;-73
2021/01/30 06:47:51;;;;;;;65.70;26.45;;;;;;;;;;8192441;28;20484;-74
2021/01/30 06:52:11;;;;;;;58.58;24.30;;;;;;;;;;8193887;28;20390;-73
2021/01/30 06:56:25;;;;;;;92.45;36.05;;;;;;;;;;8198269;28;20488;-73
2021/01/30 07:00:32;;;;;;;101.35;41.20;;;;;;;;;;8191352;28;20057;-73
2021/01/30 07:05:03;;;;;;;111.20;43.10;;;;;;;;;;8194581;28;20362;-74
2021/01/30 07:09:42;;;;;;;99.97;40.40;;;;;;;;;;8196415;28;20480;-73
2021/01/30 07:14:05;;;;;;;86.95;37.53;;;;;;;;;;8162737;28;20072;-74
2021/01/30 07:18:29;;;;;;;167.00;68.18;;;;;;;;;;8196678;28;20050;-74
2021/01/30 07:22:51;;;;;;;215.98;85.97;;;;;;;;;;8193137;28;20484;-74
2021/01/30 07:27:30;;;;;;;121.53;49.58;;;;;;;;;;8194076;28;20050;-73
2021/01/30 07:31:54;;;;;;;86.18;37.92;;;;;;;;;;8193171;28;20058;-73
2021/01/30 07:36:13;;;;;;;68.68;29.30;;;;;;;;;;8193814;28;20473;-74
2021/01/30 07:40:57;;;;;;;71.45;33.05;;;;;;;;;;8193237;28;20046;-73
2021/01/30 07:45:23;;;;;;;67.55;31.55;;;;;;;;;;8158003;28;20415;-73
2021/01/30 07:49:31;;;;;;;65.35;29.15;;;;;;;;;;8191323;28;20395;-72
2021/01/30 07:53:34;;;;;;;82.38;32.70;;;;;;;;;;8172341;28;20769;-72
2021/01/30 07:58:07;;;;;;;72.78;32.10;;;;;;;;;;8205735;28;20456;-72
2021/01/30 08:02:32;;;;;;;90.75;38.05;;;;;;;;;;8213819;28;20504;-74
2021/01/30 08:07:11;;;;;;;106.30;45.40;;;;;;;;;;8222481;28;20053;-72
2021/01/30 08:11:52;;;;;;;100.93;46.13;;;;;;;;;;7878085;28;10000981;-72
2021/01/30 08:16:10;;;;;;;274.35;104.13;;;;;;;;;;8213268;28;20479;-71
2021/01/30 08:20:24;;;;;;;170.02;68.30;;;;;;;;;;8221904;28;20384;-73
2021/01/30 08:24:45;;;;;;;141.43;63.38;;;;;;;;;;8222687;28;20395;-72
2021/01/30 08:29:10;;;;;;;79.00;38.40;;;;;;;;;;8223758;28;20468;-74
2021/01/30 08:33:13;;;;;;;72.20;29.50;;;;;;;;;;8220258;28;20375;-72
2021/01/30 08:37:19;;;;;;;58.75;25.00;;;;;;;;;;8221541;28;20373;-74
2021/01/30 08:41:23;;;;;;;44.35;19.27;;;;;;;;;;8222616;28;20478;-74
2021/01/30 08:45:33;;;;;;;46.28;21.23;;;;;;;;;;8224473;28;20473;-74
2021/01/30 08:49:37;;;;;;;38.97;16.52;;;;;;;;;;8223931;28;20490;-73
2021/01/30 08:53:41;;;;;;;39.40;15.65;;;;;;;;;;8222506;28;20377;-74
2021/01/30 08:57:45;;;;;;;43.42;20.35;;;;;;;;;;8221125;28;20468;-73
2021/01/30 09:01:49;;;;;;;39.00;18.27;;;;;;;;;;8221045;28;20486;-74
2021/01/30 09:05:52;;;;;;;33.13;16.73;;;;;;;;;;8221325;28;20472;-76
2021/01/30 09:10:35;;;;;;;67.55;31.52;;;;;;;;;;8222586;28;20494;-75
2021/01/30 09:14:41;;;;;;;48.58;22.05;;;;;;;;;;8220230;28;20369;-74
2021/01/30 09:18:49;;;;;;;50.33;19.08;;;;;;;;;;8221813;28;20071;-75
2021/01/30 09:23:05;;;;;;;39.42;16.27;;;;;;;;;;8221472;28;20551;-75
2021/01/30 09:27:17;;;;;;;46.85;25.15;;;;;;;;;;8223666;28;20380;-75
2021/01/30 09:31:20;;;;;;;118.68;43.22;;;;;;;;;;8221727;28;20373;-77
2021/01/30 09:35:34;;;;;;;113.88;63.70;;;;;;;;;;8222758;28;20460;-76
2021/01/30 09:39:38;;;;;;;143.73;73.68;;;;;;;;;;8222663;28;20686;-75
2021/01/30 09:43:41;;;;;;;79.18;39.88;;;;;;;;;;8222754;28;20460;-74
2021/01/30 09:47:48;;;;;;;31.33;16.90;;;;;;;;;;8222786;28;20388;-75
2021/01/30 09:51:55;;;;;;;32.03;18.40;;;;;;;;;;8220413;28;20495;-74
2021/01/30 09:56:15;;;;;;;21.42;10.77;;;;;;;;;;8222421;28;20384;-73
2021/01/30 10:00:40;;;;;;;24.10;11.93;;;;;;;;;;8219806;28;20464;-75
2021/01/30 10:04:44;;;;;;;36.58;16.33;;;;;;;;;;8220262;28;20494;-74
2021/01/30 10:08:48;;;;;;;27.65;10.32;;;;;;;;;;8223324;28;20497;-74
2021/01/30 10:12:55;;;;;;;23.77;12.02;;;;;;;;;;8220388;28;20400;-75
2021/01/30 10:17:08;;;;;;;30.33;13.95;;;;;;;;;;8221793;28;20379;-73
2021/01/30 10:21:12;;;;;;;37.90;17.67;;;;;;;;;;8224206;28;20476;-75
2021/01/30 10:25:28;;;;;;;59.80;27.73;;;;;;;;;;8180137;28;20465;-75
2021/01/30 10:29:34;;;;;;;63.17;31.55;;;;;;;;;;8211833;28;20480;-75
2021/01/30 10:33:45;;;;;;;120.15;63.17;;;;;;;;;;8214288;28;20438;-75
2021/01/30 10:44:03;;;;;;;80.28;44.67;;;;;;;;;;8221735;28;20487;-76
2021/01/30 10:55:33;;;;;;;57.80;25.98;;;;;;;;;;8219349;28;20106;-76
2021/01/30 10:59:53;;;;;;;54.78;25.30;;;;;;;;;;8204934;28;20479;-78
2021/01/30 11:04:03;;;;;;;41.35;20.50;;;;;;;;;;8204222;28;20058;-78
2021/01/30 11:08:07;;;;;;;39.13;20.30;;;;;;;;;;8213193;28;20380;-78
2021/01/30 11:12:28;;;;;;;54.22;25.92;;;;;;;;;;8213592;28;20506;-77
2021/01/30 11:16:34;;;;;;;48.80;23.73;;;;;;;;;;8229162;28;20357;-76
2021/01/30 11:20:48;;;;;;;44.47;21.92;;;;;;;;;;8230689;28;20494;-76
2021/01/30 11:25:08;;;;;;;39.83;19.33;;;;;;;;;;8230144;28;20533;-76
2021/01/30 11:29:44;;;;;;;54.40;22.58;;;;;;;;;;8229040;28;20472;-76
2021/01/30 11:33:50;;;;;;;36.75;15.02;;;;;;;;;;8207349;28;20506;-75
2021/01/30 11:37:58;;;;;;;38.97;16.48;;;;;;;;;;8227616;28;20475;-76
2021/01/30 11:42:01;;;;;;;29.48;14.57;;;;;;;;;;8223035;28;20418;-75
2021/01/30 11:46:04;;;;;;;28.75;13.38;;;;;;;;;;8225784;28;20370;-76
2021/01/30 11:50:09;;;;;;;34.00;17.58;;;;;;;;;;8224923;28;20396;-75
2021/01/30 11:54:17;;;;;;;34.88;13.73;;;;;;;;;;8222481;28;20383;-76
2021/01/30 11:58:20;;;;;;;25.73;11.60;;;;;;;;;;8222802;28;20057;-76
2021/01/30 12:02:32;;;;;;;43.03;21.00;;;;;;;;;;8223329;28;20962;-76
2021/01/30 12:06:36;;;;;;;38.90;18.98;;;;;;;;;;8222413;28;20073;-76
2021/01/30 12:10:40;;;;;;;44.63;19.23;;;;;;;;;;8220430;28;20486;-77
2021/01/30 12:14:43;;;;;;;41.40;19.45;;;;;;;;;;8223123;28;20488;-75
2021/01/30 12:18:46;;;;;;;28.27;13.88;;;;;;;;;;8222299;28;20045;-77
2021/01/30 12:22:49;;;;;;;30.77;15.68;;;;;;;;;;8220688;28;20057;-73
2021/01/30 12:26:52;;;;;;;37.20;17.58;;;;;;;;;;8223053;28;20392;-75
2021/01/30 12:30:56;;;;;;;32.08;13.75;;;;;;;;;;8220807;28;20392;-75
2021/01/30 12:35:00;;;;;;;40.67;18.15;;;;;;;;;;8220144;28;20480;-76
2021/01/30 12:39:04;;;;;;;41.05;18.73;;;;;;;;;;8222054;28;20494;-75
2021/01/30 12:43:09;;;;;;;37.05;17.20;;;;;;;;;;8220066;28;20428;-77
2021/01/30 12:47:31;;;;;;;78.43;30.88;;;;;;;;;;8220880;28;20456;-75
2021/01/30 12:51:45;;;;;;;51.60;19.40;;;;;;;;;;8219304;28;20491;-76
2021/01/30 12:55:48;;;;;;;49.53;19.55;;;;;;;;;;8202610;28;20375;-76
2021/01/30 12:59:51;;;;;;;34.03;15.18;;;;;;;;;;8220211;28;20468;-77
2021/01/30 13:03:54;;;;;;;56.28;21.23;;;;;;;;;;8217227;28;20387;-76
2021/01/30 13:08:02;;;;;;;41.53;16.67;;;;;;;;;;8221338;28;20049;-77
2021/01/30 13:12:10;;;;;;;47.95;17.10;;;;;;;;;;8218229;28;20116;-75
2021/01/30 13:16:13;;;;;;;42.63;16.35;;;;;;;;;;8220881;28;20391;-74
2021/01/30 13:20:19;;;;;;;39.55;17.40;;;;;;;;;;8219100;28;20468;-75
2021/01/30 13:24:32;;;;;;;50.45;21.17;;;;;;;;;;8217325;28;20491;-76
2021/01/30 13:28:36;;;;;;;47.03;19.80;;;;;;;;;;8219925;28;20396;-75
2021/01/30 13:32:40;;;;;;;38.70;18.70;;;;;;;;;;8201351;28;20358;-75
2021/01/30 13:36:44;;;;;;;49.47;20.95;;;;;;;;;;8213792;28;20500;-75
2021/01/30 13:40:47;;;;;;;58.28;21.15;;;;;;;;;;8217925;28;20499;-75
2021/01/30 13:44:50;;;;;;;39.13;17.60;;;;;;;;;;8220413;28;20476;-75
2021/01/30 13:48:54;;;;;;;56.33;23.42;;;;;;;;;;8219294;28;20487;-77
2021/01/30 13:53:02;;;;;;;57.22;25.27;;;;;;;;;;8200128;28;20063;-74
2021/01/30 13:57:05;;;;;;;49.63;26.90;;;;;;;;;;8220793;28;20380;-74
2021/01/30 14:01:08;;;;;;;156.27;76.10;;;;;;;;;;8216037;28;20373;-74
2021/01/30 14:05:13;;;;;;;213.63;108.75;;;;;;;;;;8219339;28;20072;-75
2021/01/30 14:09:16;;;;;;;151.50;73.95;;;;;;;;;;8219782;28;20057;-74
2021/01/30 14:13:19;;;;;;;148.18;68.70;;;;;;;;;;8216649;28;20057;-75
2021/01/30 14:17:23;;;;;;;96.38;46.53;;;;;;;;;;8219315;28;20071;-74
2021/01/30 14:21:26;;;;;;;60.97;28.42;;;;;;;;;;8200696;28;20053;-74
2021/01/30 14:25:30;;;;;;;101.20;42.25;;;;;;;;;;8220617;28;20057;-74
2021/01/30 14:29:34;;;;;;;87.32;34.58;;;;;;;;;;8219936;28;20494;-74
2021/01/30 14:33:40;;;;;;;70.55;27.23;;;;;;;;;;8216149;28;20384;-75
2021/01/30 14:37:44;;;;;;;133.95;50.92;;;;;;;;;;8218149;28;20079;-74
2021/01/30 14:41:47;;;;;;;142.18;51.45;;;;;;;;;;8199447;28;20420;-75
2021/01/30 14:45:50;;;;;;;117.22;43.15;;;;;;;;;;8220566;28;20457;-74
2021/01/30 14:49:53;;;;;;;119.32;46.75;;;;;;;;;;8223123;28;20062;-74
2021/01/30 14:53:57;;;;;;;89.55;36.95;;;;;;;;;;8222547;28;20473;-74
2021/01/30 14:58:01;;;;;;;108.07;46.13;;;;;;;;;;8223895;28;20456;-73
2021/01/30 15:02:05;;;;;;;113.85;50.17;;;;;;;;;;8222327;28;20515;-75
2021/01/30 15:06:09;;;;;;;95.30;42.85;;;;;;;;;;8221882;28;20416;-73
2021/01/30 15:10:17;;;;;;;65.22;29.60;;;;;;;;;;8228685;28;20379;-74
2021/01/30 15:14:21;;;;;;;143.45;55.00;;;;;;;;;;8229375;28;20087;-74
2021/01/30 15:18:24;;;;;;;127.15;44.53;;;;;;;;;;8227924;28;20072;-73
2021/01/30 15:22:28;;;;;;;111.30;41.92;;;;;;;;;;8228778;28;20411;-74
2021/01/30 15:26:39;;;;;;;103.97;40.88;;;;;;;;;;8211291;28;20393;-74
2021/01/30 15:30:42;;;;;;;64.80;27.02;;;;;;;;;;8228786;28;20369;-74
2021/01/30 15:34:45;;;;;;;54.20;22.38;;;;;;;;;;8228900;28;20483;-75
2021/01/30 15:38:51;;;;;;;58.00;25.27;;;;;;;;;;8228585;28;20373;-73
2021/01/30 15:42:54;;;;;;;56.80;26.35;;;;;;;;;;8228870;28;20571;-74
2021/01/30 15:46:57;;;;;;;52.40;24.50;;;;;;;;;;8185715;28;20384;-74
2021/01/30 15:51:01;;;;;;;50.50;22.23;;;;;;;;;;8228328;28;20503;-74
2021/01/30 15:55:07;;;;;;;53.65;22.45;;;;;;;;;;8226951;28;20498;-74
2021/01/30 15:59:11;;;;;;;64.55;27.13;;;;;;;;;;8226863;28;20057;-74
2021/01/30 16:03:14;;;;;;;58.53;25.05;;;;;;;;;;8226036;28;20364;-74
2021/01/30 16:07:17;;;;;;;56.95;24.40;;;;;;;;;;8228021;28;20482;-75
2021/01/30 16:11:21;;;;;;;56.40;23.95;;;;;;;;;;8225905;28;20379;-74
2021/01/30 16:15:26;;;;;;;54.80;23.20;;;;;;;;;;8225638;28;20480;-74
2021/01/30 16:19:31;;;;;;;51.40;23.15;;;;;;;;;;8227616;28;20037;-74
2021/01/30 16:23:40;;;;;;;64.10;27.77;;;;;;;;;;8227538;28;20477;-74
2021/01/30 16:27:43;;;;;;;66.75;28.27;;;;;;;;;;8226987;28;20046;-74
2021/01/30 16:31:47;;;;;;;63.33;27.00;;;;;;;;;;8225249;28;20061;-74
2021/01/30 16:36:04;;;;;;;57.50;26.88;;;;;;;;;;8227568;28;20050;-76
2021/01/30 16:40:11;;;;;;;55.08;25.52;;;;;;;;;;8227703;28;20506;-76
2021/01/30 16:44:15;;;;;;;55.67;25.48;;;;;;;;;;8227057;28;20357;-74
2021/01/30 16:48:18;;;;;;;48.33;22.20;;;;;;;;;;8224702;28;20383;-74
2021/01/30 16:52:24;;;;;;;46.50;20.92;;;;;;;;;;8225154;28;20071;-73
2021/01/30 16:56:28;;;;;;;53.22;24.52;;;;;;;;;;8226601;28;20380;-75
2021/01/30 17:00:36;;;;;;;82.78;39.05;;;;;;;;;;8226404;28;20361;-73
2021/01/30 17:04:40;;;;;;;281.35;109.25;;;;;;;;;;8224685;28;20358;-74
2021/01/30 17:08:43;;;;;;;131.48;59.35;;;;;;;;;;8224205;28;20598;-74
2021/01/30 17:12:47;;;;;;;176.70;66.63;;;;;;;;;;8204022;28;20373;-74
2021/01/30 17:16:52;;;;;;;67.65;31.23;;;;;;;;;;8225633;28;20408;-74
2021/01/30 17:21:07;;;;;;;209.90;78.93;;;;;;;;;;8226954;28;20391;-75
2021/01/30 17:25:19;;;;;;;198.38;71.78;;;;;;;;;;8224758;28;20057;-73
2021/01/30 17:29:22;;;;;;;123.93;42.58;;;;;;;;;;8222897;28;20439;-73
2021/01/30 17:33:28;;;;;;;137.52;47.78;;;;;;;;;;8223560;28;20041;-73
2021/01/30 17:37:31;;;;;;;154.15;57.30;;;;;;;;;;8223062;28;20371;-74
2021/01/30 17:41:35;;;;;;;72.55;32.95;;;;;;;;;;8224603;28;20041;-74
2021/01/30 17:45:38;;;;;;;90.25;31.75;;;;;;;;;;8224423;28;20384;-74
2021/01/30 17:49:41;;;;;;;106.03;39.65;;;;;;;;;;8224366;28;20353;-74
2021/01/30 17:53:44;;;;;;;126.20;39.65;;;;;;;;;;8224644;28;20510;-74
2021/01/30 17:57:48;;;;;;;271.38;68.80;;;;;;;;;;8224512;28;20476;-75
2021/01/30 18:01:51;;;;;;;66.28;25.67;;;;;;;;;;8223830;28;20392;-74
2021/01/30 18:05:55;;;;;;;76.07;25.73;;;;;;;;;;8222730;28;20460;-74
2021/01/30 18:09:58;;;;;;;120.75;43.15;;;;;;;;;;8224144;28;20391;-74
2021/01/30 18:14:02;;;;;;;105.50;41.38;;;;;;;;;;8223393;28;20464;-74
2021/01/30 18:18:06;;;;;;;63.78;28.67;;;;;;;;;;8223685;28;20076;-74
2021/01/30 18:22:10;;;;;;;84.50;37.92;;;;;;;;;;8222336;28;20072;-74
2021/01/30 18:26:15;;;;;;;59.67;24.48;;;;;;;;;;8206174;28;20380;-74
2021/01/30 18:30:23;;;;;;;66.72;29.65;;;;;;;;;;8222461;28;20384;-74
2021/01/30 18:34:27;;;;;;;64.68;25.45;;;;;;;;;;8223796;28;20092;-74
2021/01/30 18:38:30;;;;;;;50.85;22.63;;;;;;;;;;8223511;28;20053;-74
2021/01/30 18:42:34;;;;;;;57.38;25.08;;;;;;;;;;8228449;28;20387;-74
2021/01/30 18:46:37;;;;;;;70.75;28.27;;;;;;;;;;8211932;28;20407;-74
2021/01/30 18:50:42;;;;;;;108.20;37.72;;;;;;;;;;8224792;28;20512;-74
2021/01/30 18:54:45;;;;;;;51.60;23.58;;;;;;;;;;8225873;28;20472;-74
2021/01/30 18:58:52;;;;;;;44.42;19.70;;;;;;;;;;8129447;28;20493;-74
2021/01/30 19:02:58;;;;;;;54.20;22.73;;;;;;;;;;8128906;28;20478;-74
2021/01/30 19:07:04;;;;;;;121.78;34.78;;;;;;;;;;8128912;28;20385;-74
2021/01/30 19:11:07;;;;;;;249.90;76.75;;;;;;;;;;8113371;28;20436;-74
2021/01/30 19:15:18;;;;;;;141.48;52.88;;;;;;;;;;8112937;28;20484;-74
2021/01/30 19:19:28;;;;;;;110.53;45.00;;;;;;;;;;8132647;28;20493;-74
2021/01/30 19:23:31;;;;;;;75.00;30.48;;;;;;;;;;8144980;28;20488;-75
2021/01/30 19:27:34;;;;;;;99.13;37.05;;;;;;;;;;8144572;28;20054;-74
2021/01/30 19:31:37;;;;;;;57.90;25.40;;;;;;;;;;8159431;28;20672;-74
2021/01/30 19:35:44;;;;;;;81.95;27.80;;;;;;;;;;8163960;28;20486;-74
2021/01/30 19:39:47;;;;;;;76.80;29.48;;;;;;;;;;8228791;28;20501;-78
2021/01/30 19:43:51;;;;;;;87.38;30.85;;;;;;;;;;8228119;28;20416;-74
2021/01/30 19:47:55;;;;;;;100.40;34.00;;;;;;;;;;8228481;28;20419;-74
2021/01/30 19:51:58;;;;;;;107.90;40.63;;;;;;;;;;8228521;28;20487;-74
2021/01/30 19:56:02;;;;;;;61.40;24.50;;;;;;;;;;8226794;28;20375;-73
2021/01/30 20:00:07;;;;;;;55.40;22.33;;;;;;;;;;8228076;28;20364;-73
2021/01/30 20:04:10;;;;;;;122.85;36.70;;;;;;;;;;8227645;28;20503;-72
2021/01/30 20:08:14;;;;;;;62.05;25.05;;;;;;;;;;8227523;28;20490;-73
2021/01/30 20:12:18;;;;;;;61.95;26.73;;;;;;;;;;8115047;28;20657;-73
2021/01/30 20:16:21;;;;;;;122.25;40.80;;;;;;;;;;8189976;28;20469;-73
2021/01/30 20:20:25;;;;;;;65.78;24.73;;;;;;;;;;8190892;28;20084;-73
2021/01/30 20:24:28;;;;;;;68.07;23.42;;;;;;;;;;8191556;28;20070;-74
2021/01/30 20:28:32;;;;;;;61.50;23.13;;;;;;;;;;8190345;28;20057;-74
2021/01/30 20:32:36;;;;;;;68.47;24.92;;;;;;;;;;8189959;28;20057;-73
2021/01/30 20:36:44;;;;;;;85.93;27.83;;;;;;;;;;8173117;28;20465;-76
2021/01/30 20:40:47;;;;;;;68.68;23.70;;;;;;;;;;8188792;28;20448;-74
2021/01/30 20:44:53;;;;;;;85.50;26.80;;;;;;;;;;8190315;28;20495;-74
2021/01/30 20:48:57;;;;;;;47.08;21.98;;;;;;;;;;8189814;28;20461;-73
2021/01/30 20:53:01;;;;;;;58.83;23.65;;;;;;;;;;8190652;28;20379;-72
2021/01/30 20:57:05;;;;;;;64.95;23.73;;;;;;;;;;8188724;28;20398;-73
2021/01/30 21:01:08;;;;;;;54.05;20.52;;;;;;;;;;8188036;28;20384;-73
2021/01/30 21:05:12;;;;;;;69.47;26.23;;;;;;;;;;8188340;28;20384;-73
2021/01/30 21:09:17;;;;;;;74.75;26.27;;;;;;;;;;8200124;28;20492;-73
2021/01/30 21:13:21;;;;;;;51.42;21.63;;;;;;;;;;8190572;28;20388;-74
2021/01/30 21:17:26;;;;;;;63.40;24.00;;;;;;;;;;8170344;28;20491;-74
2021/01/30 21:21:29;;;;;;;65.88;23.58;;;;;;;;;;8188560;28;20361;-74
2021/01/30 21:25:33;;;;;;;48.90;22.23;;;;;;;;;;8187598;28;20389;-74
2021/01/30 21:29:37;;;;;;;51.38;20.17;;;;;;;;;;8185802;28;20484;-74
2021/01/30 21:33:40;;;;;;;50.83;17.73;;;;;;;;;;8188816;28;20049;-75
2021/01/30 21:37:44;;;;;;;48.95;18.15;;;;;;;;;;8185645;28;20493;-74
2021/01/30 21:41:47;;;;;;;80.30;23.42;;;;;;;;;;8188771;28;20495;-74
2021/01/30 21:45:52;;;;;;;62.90;22.70;;;;;;;;;;8190674;28;20480;-74
2021/01/30 21:49:55;;;;;;;44.90;17.38;;;;;;;;;;8187788;28;20358;-74
2021/01/30 21:53:59;;;;;;;43.42;16.85;;;;;;;;;;8189183;28;20495;-74
2021/01/30 21:58:02;;;;;;;37.65;14.52;;;;;;;;;;8187343;28;20654;-73
2021/01/30 22:02:06;;;;;;;50.05;17.25;;;;;;;;;;8189333;28;20491;-74
2021/01/30 22:06:11;;;;;;;60.25;20.02;;;;;;;;;;8199151;28;20067;-74
2021/01/30 22:10:16;;;;;;;38.67;16.23;;;;;;;;;;8219898;28;20369;-74
2021/01/30 22:14:19;;;;;;;41.10;14.35;;;;;;;;;;8192725;28;20460;-75
2021/01/30 22:18:23;;;;;;;38.95;14.38;;;;;;;;;;8218671;28;20473;-76
2021/01/30 22:22:26;;;;;;;71.65;20.63;;;;;;;;;;8218765;28;20399;-74
2021/01/30 22:26:34;;;;;;;39.10;14.20;;;;;;;;;;8219089;28;20464;-73
2021/01/30 22:30:37;;;;;;;60.97;20.23;;;;;;;;;;8219500;28;20482;-75
2021/01/30 22:34:41;;;;;;;165.13;41.15;;;;;;;;;;8219245;28;20465;-74
2021/01/30 22:38:44;;;;;;;40.38;15.70;;;;;;;;;;8218850;28;20368;-73
2021/01/30 22:42:48;;;;;;;131.00;37.50;;;;;;;;;;8219191;28;20389;-74
2021/01/30 22:46:51;;;;;;;151.02;41.55;;;;;;;;;;8201095;28;20045;-74
2021/01/30 22:50:54;;;;;;;144.18;40.80;;;;;;;;;;8219522;28;20116;-74
2021/01/30 22:54:57;;;;;;;99.03;32.53;;;;;;;;;;8219624;28;20465;-75
2021/01/30 22:59:02;;;;;;;78.47;20.20;;;;;;;;;;8216393;28;20380;-72
2021/01/30 23:03:06;;;;;;;74.15;20.88;;;;;;;;;;8219120;28;20472;-73
2021/01/30 23:07:10;;;;;;;77.75;20.20;;;;;;;;;;8218659;28;20472;-74
2021/01/30 23:11:15;;;;;;;85.03;21.10;;;;;;;;;;8218176;28;20415;-75
2021/01/30 23:15:20;;;;;;;83.57;23.90;;;;;;;;;;8218489;28;20749;-74
2021/01/30 23:19:23;;;;;;;100.53;26.38;;;;;;;;;;8217903;28;20365;-74
2021/01/30 23:23:28;;;;;;;91.57;24.08;;;;;;;;;;8199639;28;20057;-74
2021/01/30 23:27:33;;;;;;;73.78;22.23;;;;;;;;;;8217216;28;20498;-75
2021/01/30 23:31:38;;;;;;;65.07;20.73;;;;;;;;;;8224584;28;20480;-74
2021/01/30 23:35:43;;;;;;;127.18;32.55;;;;;;;;;;8224594;28;20419;-75
2021/01/30 23:39:46;;;;;;;90.80;24.70;;;;;;;;;;8221577;28;20463;-74
2021/01/30 23:43:49;;;;;;;156.55;37.92;;;;;;;;;;8224289;28;20057;-74
2021/01/30 23:47:54;;;;;;;109.55;29.70;;;;;;;;;;8223340;28;20064;-75
2021/01/30 23:51:58;;;;;;;57.97;20.20;;;;;;;;;;8224795;28;20472;-74
2021/01/30 23:56:05;;;;;;;41.05;13.93;;;;;;;;;;8223300;28;20510;-76
